createdAt,value
2023-05-30T00:02:22.273Z,57215.63
2023-05-30T00:04:49.028Z,57215.63
2023-05-30T00:07:16.174Z,57215.63
2023-05-30T00:09:42.944Z,57215.63
2023-05-30T00:12:09.864Z,57215.63
2023-05-30T00:14:38.159Z,57215.63
2023-05-30T00:17:06.398Z,57215.63
2023-05-30T00:19:33.148Z,57215.63
2023-05-30T00:21:59.852Z,57215.63
2023-05-30T00:24:27.066Z,57215.63
2023-05-30T00:26:53.750Z,57215.63
2023-05-30T00:29:20.760Z,57215.63
2023-05-30T00:31:47.577Z,57215.63
2023-05-30T00:34:14.365Z,57215.63
2023-05-30T00:36:41.000Z,57215.63
2023-05-30T00:39:08.174Z,57215.63
2023-05-30T00:41:34.843Z,57215.63
2023-05-30T00:44:01.643Z,57215.63
2023-05-30T00:46:30.894Z,57215.63
2023-05-30T00:49:00.792Z,57215.63
2023-05-30T00:51:31.068Z,57215.63
2023-05-30T00:53:59.204Z,57215.63
2023-05-30T00:56:27.662Z,57215.63
2023-05-30T00:58:54.472Z,57215.63
2023-05-30T01:01:21.960Z,57215.63
2023-05-30T01:03:49.279Z,57215.63
2023-05-30T01:06:16.342Z,57215.63
2023-05-30T01:08:42.969Z,57215.63
2023-05-30T01:11:18.616Z,57215.63
2023-05-30T01:13:59.791Z,57215.63
2023-05-30T01:16:32.949Z,57215.63
2023-05-30T01:19:25.366Z,57215.63
2023-05-30T01:22:00.921Z,57215.63
2023-05-30T01:24:42.386Z,57215.63
2023-05-30T01:27:16.491Z,57215.63
2023-05-30T01:29:44.076Z,57215.63
2023-05-30T01:32:11.063Z,57215.63
2023-05-30T01:34:38.585Z,57215.63
2023-05-30T01:37:05.644Z,57215.63
2023-05-30T01:39:32.288Z,57215.63
2023-05-30T01:42:09.626Z,57215.63
2023-05-30T01:45:15.053Z,57215.63
2023-05-30T01:47:59.150Z,57215.63
2023-05-30T01:50:33.318Z,57215.63
2023-05-30T01:53:01.040Z,57215.63
2023-05-30T01:55:31.888Z,57215.63
2023-05-30T01:57:59.447Z,57215.63
2023-05-30T02:00:26.979Z,57215.63
2023-05-30T02:02:54.018Z,57215.63
2023-05-30T02:05:20.777Z,57215.63
2023-05-30T02:07:47.456Z,57215.63
2023-05-30T02:10:14.194Z,57215.63
2023-05-30T02:12:43.300Z,57215.63
2023-05-30T02:15:10.345Z,57215.63
2023-05-30T02:17:37.545Z,57215.63
2023-05-30T02:20:04.613Z,57215.63
2023-05-30T02:22:31.326Z,57215.63
2023-05-30T02:25:00.459Z,57215.63
2023-05-30T02:27:27.130Z,57215.63
2023-05-30T02:29:53.890Z,57215.63
2023-05-30T02:32:20.682Z,57215.63
2023-05-30T02:34:47.493Z,57215.63
2023-05-30T02:37:14.130Z,57215.63
2023-05-30T02:39:40.895Z,57215.63
2023-05-30T02:42:08.229Z,57215.63
2023-05-30T02:44:34.938Z,57215.63
2023-05-30T02:47:01.696Z,57215.63
2023-05-30T02:49:28.705Z,57215.63
2023-05-30T02:51:55.935Z,57215.63
2023-05-30T02:54:22.578Z,57215.63
2023-05-30T02:56:49.174Z,57215.63
2023-05-30T02:59:16.145Z,57215.63
2023-05-30T03:01:42.876Z,57215.63
2023-05-30T03:04:09.520Z,57215.63
2023-05-30T03:06:37.287Z,57215.63
2023-05-30T03:09:05.047Z,57215.63
2023-05-30T03:11:31.650Z,57215.63
2023-05-30T03:13:58.364Z,57215.63
2023-05-30T03:16:25.055Z,57215.63
2023-05-30T03:18:51.893Z,57215.63
2023-05-30T03:21:18.609Z,57215.63
2023-05-30T03:23:45.293Z,57215.63
2023-05-30T03:26:11.914Z,57215.63
2023-05-30T03:28:38.594Z,57215.63
2023-05-30T03:31:07.850Z,57215.63
2023-05-30T03:33:34.633Z,57215.63
2023-05-30T03:36:01.664Z,57215.63
2023-05-30T03:38:28.287Z,57215.63
2023-05-30T03:40:55.087Z,57215.63
2023-05-30T03:43:36.934Z,57215.63
2023-05-30T03:46:03.706Z,57215.63
2023-05-30T03:48:30.429Z,57215.63
2023-05-30T03:50:57.337Z,57215.63
2023-05-30T03:53:24.186Z,57215.63
2023-05-30T03:55:51.111Z,57215.63
2023-05-30T03:58:17.727Z,57215.63
2023-05-30T04:00:44.424Z,57215.63
2023-05-30T04:03:11.490Z,57215.63
2023-05-30T04:05:38.159Z,57215.63
2023-05-30T04:08:18.859Z,57215.63
2023-05-30T04:10:46.030Z,57215.63
2023-05-30T04:13:37.044Z,57215.63
2023-05-30T04:16:14.067Z,57215.63
2023-05-30T04:18:45.922Z,57215.63
2023-05-30T04:21:16.062Z,57215.63
2023-05-30T04:24:25.895Z,57215.63
2023-05-30T04:29:48.880Z,57215.63
2023-05-30T04:32:18.486Z,57215.63
2023-05-30T04:34:50.552Z,57215.63
2023-05-30T04:37:19.385Z,57215.63
2023-05-30T04:39:46.259Z,57215.63
2023-05-30T04:42:19.039Z,57215.63
2023-05-30T04:44:52.330Z,57215.63
2023-05-30T04:47:19.053Z,57215.63
2023-05-30T04:49:46.924Z,57215.63
2023-05-30T04:52:13.783Z,57215.63
2023-05-30T04:54:41.022Z,57215.63
2023-05-30T04:57:07.856Z,57215.63
2023-05-30T04:59:34.779Z,57215.63
2023-05-30T05:02:01.633Z,57215.63
2023-05-30T05:04:28.293Z,57215.63
2023-05-30T05:06:54.945Z,57215.63
2023-05-30T05:09:23.517Z,57215.63
2023-05-30T05:11:50.163Z,57215.63
2023-05-30T05:14:16.873Z,57215.63
2023-05-30T05:16:43.641Z,57215.63
2023-05-30T05:19:10.288Z,57215.63
2023-05-30T05:21:38.075Z,57215.63
2023-05-30T05:24:05.139Z,57215.63
2023-05-30T05:26:31.708Z,57215.63
2023-05-30T05:28:58.322Z,57215.63
2023-05-30T05:31:25.984Z,57215.63
2023-05-30T05:33:55.105Z,57215.63
2023-05-30T05:36:22.912Z,57215.63
2023-05-30T05:38:49.639Z,57215.63
2023-05-30T05:41:17.116Z,57215.63
2023-05-30T05:43:43.796Z,57215.63
2023-05-30T05:46:12.927Z,57215.63
2023-05-30T05:48:39.591Z,57215.63
2023-05-30T05:51:06.255Z,57215.63
2023-05-30T05:53:32.896Z,57215.63
2023-05-30T05:58:29.701Z,97493.94
2023-05-30T06:00:56.739Z,97498.66
2023-05-30T06:03:23.782Z,97498.09
2023-05-30T06:05:50.571Z,97495.06
2023-05-30T06:08:17.333Z,97503.22
2023-05-30T06:10:44.141Z,97508.41
2023-05-30T06:13:10.807Z,97505.00
2023-05-30T06:15:37.492Z,97501.97
2023-05-30T06:18:04.981Z,97502.59
2023-05-30T06:20:31.711Z,97495.16
2023-05-30T06:22:58.425Z,97498.03
2023-05-30T06:25:27.267Z,97492.34
2023-05-30T06:27:53.967Z,97496.72
2023-05-30T06:30:20.785Z,97491.38
2023-05-30T06:32:47.481Z,97493.59
2023-05-30T06:35:14.200Z,97493.13
2023-05-30T06:37:40.938Z,97487.00
2023-05-30T06:40:08.499Z,97486.38
2023-05-30T06:42:36.057Z,97487.91
2023-05-30T06:45:02.716Z,97488.19
2023-05-30T06:47:29.404Z,97480.72
2023-05-30T06:49:56.362Z,97476.22
2023-05-30T06:52:23.200Z,97479.13
2023-05-30T06:54:49.823Z,97479.38
2023-05-30T06:57:16.504Z,97478.91
2023-05-30T06:59:43.339Z,97474.25
2023-05-30T07:02:11.352Z,97472.56
2023-05-30T07:04:38.198Z,97467.72
2023-05-30T07:07:05.510Z,97475.25
2023-05-30T07:09:34.983Z,97473.91
2023-05-30T07:12:02.056Z,97467.81
2023-05-30T07:14:28.790Z,97470.81
2023-05-30T07:16:55.570Z,97472.38
2023-05-30T07:19:22.263Z,97470.50
2023-05-30T07:21:49.224Z,97462.28
2023-05-30T07:24:15.919Z,97463.16
2023-05-30T07:26:42.589Z,97457.94
2023-05-30T07:29:09.382Z,97465.84
2023-05-30T07:31:36.128Z,97458.38
2023-05-30T07:34:02.901Z,97460.66
2023-05-30T07:36:29.604Z,97457.34
2023-05-30T07:38:56.302Z,97451.94
2023-05-30T07:41:27.813Z,97465.19
2023-05-30T07:43:57.371Z,97461.69
2023-05-30T07:46:24.414Z,97455.13
2023-05-30T07:48:51.164Z,97454.22
2023-05-30T07:51:18.909Z,97453.22
2023-05-30T07:53:47.418Z,97445.50
2023-05-30T07:56:16.808Z,97446.66
2023-05-30T07:58:46.710Z,97447.66
2023-05-30T08:01:15.883Z,97444.25
2023-05-30T08:03:42.762Z,97438.50
2023-05-30T08:06:09.482Z,97443.34
2023-05-30T08:08:36.482Z,97444.22
2023-05-30T08:11:03.206Z,97442.09
2023-05-30T08:13:32.836Z,97438.00
2023-05-30T08:16:03.649Z,97436.31
2023-05-30T08:18:33.186Z,97427.38
2023-05-30T08:21:03.733Z,97432.03
2023-05-30T08:23:38.312Z,97435.72
2023-05-30T08:26:10.229Z,97437.56
2023-05-30T08:28:38.202Z,97428.25
2023-05-30T08:31:08.971Z,97427.41
2023-05-30T08:33:37.700Z,97425.28
2023-05-30T08:36:04.431Z,97423.47
2023-05-30T08:38:35.656Z,97425.88
2023-05-30T08:41:02.370Z,97426.88
2023-05-30T08:43:29.187Z,97430.94
2023-05-30T08:45:56.749Z,97429.66
2023-05-30T08:48:27.396Z,97429.25
2023-05-30T08:50:54.246Z,97433.91
2023-05-30T08:53:31.685Z,97431.19
2023-05-30T08:56:29.575Z,97436.59
2023-05-30T08:58:59.588Z,97423.88
2023-05-30T09:01:28.458Z,97420.78
2023-05-30T09:03:57.378Z,97420.06
2023-05-30T09:06:27.028Z,97419.94
2023-05-30T09:08:55.375Z,97418.84
2023-05-30T09:11:24.647Z,97419.50
2023-05-30T09:13:54.353Z,97423.31
2023-05-30T09:16:21.098Z,97419.47
2023-05-30T09:18:47.765Z,97416.31
2023-05-30T09:21:16.801Z,97422.25
2023-05-30T09:23:43.712Z,97414.03
2023-05-30T09:26:15.341Z,97407.75
2023-05-30T09:28:49.244Z,97413.91
2023-05-30T09:31:17.344Z,97412.78
2023-05-30T09:33:50.425Z,97407.59
2023-05-30T09:36:21.171Z,97409.03
2023-05-30T09:38:59.774Z,97404.19
2023-05-30T09:41:28.104Z,97404.16
2023-05-30T09:43:55.661Z,97407.72
2023-05-30T09:46:25.150Z,97395.31
2023-05-30T09:48:52.583Z,97397.94
2023-05-30T09:51:21.321Z,97396.25
2023-05-30T09:54:05.570Z,97385.66
2023-05-30T09:56:39.363Z,97384.47
2023-05-30T09:59:11.484Z,97381.19
2023-05-30T10:01:38.634Z,97384.38
2023-05-30T10:04:17.426Z,97374.13
2023-05-30T10:06:47.246Z,97366.53
2023-05-30T10:09:14.402Z,97373.88
2023-05-30T10:11:43.369Z,97365.47
2023-05-30T10:14:11.616Z,97363.03
2023-05-30T10:16:54.479Z,97358.53
2023-05-30T10:19:36.303Z,97352.88
2023-05-30T10:22:08.044Z,97351.94
2023-05-30T10:24:39.031Z,97349.53
2023-05-30T10:27:12.429Z,97350.13
2023-05-30T10:29:49.139Z,97350.75
2023-05-30T10:32:25.616Z,97351.28
2023-05-30T10:35:00.548Z,97352.13
2023-05-30T10:37:27.832Z,97341.97
2023-05-30T10:40:13.861Z,97340.81
2023-05-30T10:43:06.693Z,97328.88
2023-05-30T10:46:10.240Z,97335.81
2023-05-30T10:48:51.624Z,97340.47
2023-05-30T10:51:21.342Z,97338.88
2023-05-30T10:53:51.612Z,97333.78
2023-05-30T10:56:27.606Z,97333.22
2023-05-30T10:58:54.924Z,97325.84
2023-05-30T11:01:36.113Z,97326.16
2023-05-30T11:04:07.667Z,97319.44
2023-05-30T11:06:45.812Z,97326.09
2023-05-30T11:09:19.434Z,97315.22
2023-05-30T11:11:48.509Z,97313.88
2023-05-30T11:14:16.414Z,97309.25
2023-05-30T11:16:55.947Z,97312.72
2023-05-30T11:19:27.999Z,97315.47
2023-05-30T11:22:02.386Z,97313.97
2023-05-30T11:24:31.459Z,97305.19
2023-05-30T11:27:06.747Z,97305.03
2023-05-30T11:29:45.097Z,97303.00
2023-05-30T11:32:13.149Z,97304.38
2023-05-30T11:34:39.889Z,97304.53
2023-05-30T11:37:07.227Z,97298.09
2023-05-30T11:39:37.930Z,97292.34
2023-05-30T11:42:06.762Z,97293.84
2023-05-30T11:44:33.528Z,97293.91
2023-05-30T11:47:31.578Z,97293.19
2023-05-30T11:50:00.134Z,97294.00
2023-05-30T11:52:26.861Z,97303.09
2023-05-30T11:55:00.110Z,97291.38
2023-05-30T11:57:28.228Z,97295.19
2023-05-30T11:59:55.760Z,97298.63
2023-05-30T12:02:33.658Z,97292.34
2023-05-30T12:05:03.189Z,97287.91
2023-05-30T12:07:36.061Z,97287.16
2023-05-30T12:10:03.249Z,97282.41
2023-05-30T12:12:32.228Z,97282.84
2023-05-30T12:15:00.303Z,97283.53
2023-05-30T12:17:27.602Z,97282.06
2023-05-30T12:20:07.795Z,97284.25
2023-05-30T12:22:34.646Z,97279.88
2023-05-30T12:25:10.556Z,97272.53
2023-05-30T12:27:43.300Z,97274.22
2023-05-30T12:30:19.813Z,97273.25
2023-05-30T12:32:46.910Z,97279.09
2023-05-30T12:35:14.841Z,97277.94
2023-05-30T12:37:41.724Z,97273.81
2023-05-30T12:40:09.061Z,97274.59
2023-05-30T12:42:39.070Z,97270.34
2023-05-30T12:45:08.265Z,97265.84
2023-05-30T12:47:38.925Z,97266.50
2023-05-30T12:50:07.361Z,97271.94
2023-05-30T12:52:34.087Z,97260.69
2023-05-30T12:55:00.784Z,97264.91
2023-05-30T12:57:27.724Z,97261.34
2023-05-30T12:59:55.897Z,97262.56
2023-05-30T13:02:26.201Z,97260.50
2023-05-30T13:04:54.283Z,97254.53
2023-05-30T13:07:21.655Z,97256.66
2023-05-30T13:09:48.773Z,97253.16
2023-05-30T13:12:16.079Z,97253.31
2023-05-30T13:14:45.145Z,97252.53
2023-05-30T13:17:12.532Z,97251.75
2023-05-30T13:19:39.520Z,97243.97
2023-05-30T13:22:08.993Z,97244.06
2023-05-30T13:24:36.330Z,97240.41
2023-05-30T13:27:03.185Z,97240.22
2023-05-30T13:29:29.876Z,97241.16
2023-05-30T13:31:56.597Z,97235.97
2023-05-30T13:34:23.411Z,97226.69
2023-05-30T13:36:50.279Z,97228.88
2023-05-30T13:39:16.973Z,97224.94
2023-05-30T13:41:43.690Z,97220.16
2023-05-30T13:44:10.341Z,97225.50
2023-05-30T13:49:07.233Z,97219.03
2023-05-30T13:51:35.034Z,97220.84
2023-05-30T13:54:05.455Z,97221.97
2023-05-30T13:56:32.373Z,97227.41
2023-05-30T13:58:59.721Z,97221.47
2023-05-30T14:01:32.631Z,97213.75
2023-05-30T14:04:01.075Z,97225.91
2023-05-30T14:06:28.245Z,97216.00
2023-05-30T14:08:55.433Z,97222.81
2023-05-30T14:11:22.913Z,97223.94
2023-05-30T14:13:50.544Z,97228.09
2023-05-30T14:16:17.669Z,97228.97
2023-05-30T14:18:47.820Z,97220.19
2023-05-30T14:21:15.184Z,97223.50
2023-05-30T14:23:41.833Z,97216.59
2023-05-30T14:26:08.566Z,97219.06
2023-05-30T14:28:35.273Z,97221.84
2023-05-30T14:31:02.379Z,97222.91
2023-05-30T14:33:29.419Z,97230.25
2023-05-30T14:35:56.194Z,97230.06
2023-05-30T14:38:23.605Z,97226.41
2023-05-30T14:40:50.531Z,97223.34
2023-05-30T14:43:17.613Z,97231.88
2023-05-30T14:45:44.416Z,97226.84
2023-05-30T14:48:12.626Z,97230.22
2023-05-30T14:50:39.301Z,97229.13
2023-05-30T14:53:32.646Z,97240.13
2023-05-30T14:55:59.617Z,97243.47
2023-05-30T14:58:26.966Z,97241.16
2023-05-30T15:00:53.695Z,97240.13
2023-05-30T15:03:21.989Z,97232.22
2023-05-30T15:05:48.677Z,97238.53
2023-05-30T15:08:15.246Z,97248.06
2023-05-30T15:10:43.099Z,97247.28
2023-05-30T15:13:09.949Z,97248.53
2023-05-30T15:15:36.581Z,97241.72
2023-05-30T15:18:03.313Z,97247.03
2023-05-30T15:20:30.082Z,97236.63
2023-05-30T15:22:56.677Z,97252.44
2023-05-30T15:25:23.180Z,97252.88
2023-05-30T15:27:51.227Z,97257.19
2023-05-30T15:30:18.001Z,97261.19
2023-05-30T15:32:44.552Z,97266.09
2023-05-30T15:35:11.110Z,97256.44
2023-05-30T15:37:37.633Z,97263.47
2023-05-30T15:40:09.404Z,97253.69
2023-05-30T15:42:35.985Z,97264.47
2023-05-30T15:45:02.567Z,97260.63
2023-05-30T15:47:29.270Z,97261.50
2023-05-30T15:49:56.667Z,97274.94
2023-05-30T15:52:23.402Z,97270.19
2023-05-30T15:54:50.877Z,97278.16
2023-05-30T15:57:17.431Z,97275.09
2023-05-30T15:59:44.061Z,97277.44
2023-05-30T16:02:10.630Z,97278.84
2023-05-30T16:04:38.090Z,97286.03
2023-05-30T16:07:05.140Z,97286.00
2023-05-30T16:09:31.965Z,97294.31
2023-05-30T16:11:58.628Z,97291.00
2023-05-30T16:14:28.531Z,97284.03
2023-05-30T16:16:55.485Z,97288.47
2023-05-30T16:19:22.380Z,97293.47
2023-05-30T16:21:49.254Z,97294.47
2023-05-30T16:24:16.064Z,97294.09
2023-05-30T16:26:42.736Z,97291.59
2023-05-30T16:29:09.470Z,97289.88
2023-05-30T16:31:36.348Z,97289.09
2023-05-30T16:34:03.320Z,97302.19
2023-05-30T16:36:30.291Z,97302.97
2023-05-30T16:38:56.893Z,97302.69
2023-05-30T16:41:23.707Z,97305.59
2023-05-30T16:43:50.899Z,97314.19
2023-05-30T16:46:17.719Z,97312.06
2023-05-30T16:48:44.411Z,97319.56
2023-05-30T16:51:11.226Z,97316.69
2023-05-30T16:53:38.090Z,97322.81
2023-05-30T16:56:16.693Z,97318.19
2023-05-30T16:58:45.483Z,97325.75
2023-05-30T17:01:12.308Z,97332.41
2023-05-30T17:03:41.526Z,97332.91
2023-05-30T17:06:08.902Z,97332.91
2023-05-30T17:08:38.842Z,97341.69
2023-05-30T17:11:05.682Z,97339.91
2023-05-30T17:13:32.406Z,97336.69
2023-05-30T17:15:59.108Z,97340.53
2023-05-30T17:18:28.595Z,97349.88
2023-05-30T17:20:56.434Z,97360.84
2023-05-30T17:23:24.470Z,97360.13
2023-05-30T17:26:02.069Z,97364.94
2023-05-30T17:28:32.592Z,97355.63
2023-05-30T17:30:59.568Z,97364.91
2023-05-30T17:33:29.146Z,97362.84
2023-05-30T17:35:56.932Z,97378.84
2023-05-30T17:38:23.652Z,97375.78
2023-05-30T17:40:50.612Z,97368.94
2023-05-30T17:43:22.051Z,97372.69
2023-05-30T17:45:48.771Z,97374.91
2023-05-30T17:48:15.506Z,97382.53
2023-05-30T17:50:45.221Z,97386.28
2023-05-30T17:53:11.899Z,97387.28
2023-05-30T17:55:38.770Z,97386.16
2023-05-30T17:58:05.417Z,97391.25
2023-05-30T18:00:34.577Z,97396.38
2023-05-30T18:03:02.788Z,97396.53
2023-05-30T18:05:29.587Z,97392.81
2023-05-30T18:07:56.271Z,97404.03
2023-05-30T18:10:22.927Z,97414.56
2023-05-30T18:12:49.558Z,97408.09
2023-05-30T18:15:16.328Z,97416.09
2023-05-30T18:17:43.017Z,97414.50
2023-05-30T18:20:10.265Z,97420.63
2023-05-30T18:22:37.004Z,97414.41
2023-05-30T18:25:03.984Z,97423.19
2023-05-30T18:27:30.724Z,97419.94
2023-05-30T18:29:57.518Z,97427.53
2023-05-30T18:32:24.318Z,97423.69
2023-05-30T18:34:51.122Z,97431.63
2023-05-30T18:37:17.805Z,97432.16
2023-05-30T18:39:44.724Z,97436.34
2023-05-30T18:42:12.721Z,97433.09
2023-05-30T18:44:39.405Z,97445.53
2023-05-30T18:47:06.443Z,97447.06
2023-05-30T18:49:33.324Z,97460.91
2023-05-30T18:52:00.048Z,97456.03
2023-05-30T18:54:26.741Z,97465.81
2023-05-30T18:56:53.560Z,97459.59
2023-05-30T18:59:20.375Z,97466.69
2023-05-30T19:01:47.137Z,97477.50
2023-05-30T19:04:14.498Z,97475.13
2023-05-30T19:06:41.211Z,97478.03
2023-05-30T19:09:07.931Z,97479.06
2023-05-30T19:11:34.617Z,97489.13
2023-05-30T19:14:01.710Z,97488.47
2023-05-30T19:16:29.119Z,97488.47
2023-05-30T19:18:55.779Z,97495.09
2023-05-30T19:21:22.497Z,97490.16
2023-05-30T19:23:49.126Z,97489.97
2023-05-30T19:26:18.340Z,97498.63
2023-05-30T19:28:46.354Z,97499.25
2023-05-30T19:31:15.391Z,97503.94
2023-05-30T19:33:43.163Z,97499.91
2023-05-30T19:36:10.784Z,97504.84
2023-05-30T19:38:37.957Z,97507.06
2023-05-30T19:41:07.424Z,97508.25
2023-05-30T19:43:34.945Z,97505.16
2023-05-30T19:46:01.956Z,97505.13
2023-05-30T19:48:28.698Z,97507.47
2023-05-30T19:50:56.206Z,97509.91
2023-05-30T19:53:23.086Z,97509.47
2023-05-30T19:55:49.758Z,97507.28
2023-05-30T19:58:22.330Z,97514.00
2023-05-30T20:00:49.326Z,97513.91
2023-05-30T20:03:16.545Z,97510.47
2023-05-30T20:05:43.457Z,97517.09
2023-05-30T20:08:10.554Z,97517.47
2023-05-30T20:10:37.511Z,97518.97
2023-05-30T20:13:04.652Z,97513.16
2023-05-30T20:15:31.731Z,97513.31
2023-05-30T20:18:02.428Z,97518.34
2023-05-30T20:20:30.020Z,97524.13
2023-05-30T20:22:57.769Z,97527.72
2023-05-30T20:25:24.695Z,97532.44
2023-05-30T20:27:51.709Z,97540.41
2023-05-30T20:30:18.724Z,97536.94
2023-05-30T20:32:46.481Z,97542.44
2023-05-30T20:35:13.266Z,97548.47
2023-05-30T20:37:40.022Z,97551.47
2023-05-30T20:40:07.299Z,97553.81
2023-05-30T20:42:34.418Z,97557.59
2023-05-30T20:45:01.237Z,97561.25
2023-05-30T20:47:28.499Z,97565.88
2023-05-30T20:49:55.295Z,97554.56
2023-05-30T20:52:21.973Z,97559.81
2023-05-30T20:54:48.604Z,97556.31
2023-05-30T20:57:22.938Z,97553.38
2023-05-30T20:59:49.680Z,97557.88
2023-05-30T21:02:16.564Z,97564.63
2023-05-30T21:04:43.973Z,97562.06
2023-05-30T21:07:10.912Z,97556.34
2023-05-30T21:09:37.680Z,97555.22
2023-05-30T21:12:04.834Z,97562.53
2023-05-30T21:14:31.620Z,97566.81
2023-05-30T21:16:58.262Z,97576.88
2023-05-30T21:19:24.944Z,97575.31
2023-05-30T21:21:51.597Z,97571.22
2023-05-30T21:24:18.325Z,97580.09
2023-05-30T21:26:44.963Z,97587.75
2023-05-30T21:29:11.812Z,97588.13
2023-05-30T21:31:38.641Z,97588.22
2023-05-30T21:34:06.205Z,57215.63
2023-05-30T21:36:32.952Z,57215.63
2023-05-30T21:38:59.596Z,57215.63
2023-05-30T21:41:26.827Z,97602.22
2023-05-30T21:43:53.586Z,97605.50
2023-05-30T21:46:20.298Z,97603.78
2023-05-30T21:48:47.062Z,97608.66
2023-05-30T21:51:14.033Z,97609.94
2023-05-30T21:53:40.793Z,97603.31
2023-05-30T21:56:08.093Z,97607.56
2023-05-30T21:58:34.860Z,97600.56
2023-05-30T22:01:02.005Z,97596.75
2023-05-30T22:03:31.238Z,97602.00
2023-05-30T22:05:58.884Z,97600.34
2023-05-30T22:08:25.609Z,97604.75
2023-05-30T22:10:52.947Z,97601.00
2023-05-30T22:13:19.878Z,97606.50
2023-05-30T22:15:46.535Z,97603.44
2023-05-30T22:18:13.381Z,97600.09
2023-05-30T22:20:40.186Z,97597.66
2023-05-30T22:23:06.935Z,97595.44
2023-05-30T22:25:33.614Z,97587.66
2023-05-30T22:28:00.541Z,97592.28
2023-05-30T22:30:27.273Z,97589.03
2023-05-30T22:32:54.009Z,97599.81
2023-05-30T22:35:20.827Z,97597.44
2023-05-30T22:37:50.217Z,97598.19
2023-05-30T22:40:17.306Z,97604.69
2023-05-30T22:42:43.980Z,97602.47
2023-05-30T22:45:10.871Z,97597.34
2023-05-30T22:47:37.559Z,97594.56
2023-05-30T22:50:05.053Z,97592.75
2023-05-30T22:52:31.862Z,97600.41
2023-05-30T22:54:58.473Z,97593.75
2023-05-30T22:57:25.190Z,97592.59
2023-05-30T22:59:51.826Z,97594.06
2023-05-30T23:02:18.647Z,97590.50
2023-05-30T23:04:45.610Z,97587.38
2023-05-30T23:07:12.252Z,97590.56
2023-05-30T23:09:38.912Z,97590.16
2023-05-30T23:12:06.437Z,97587.06
2023-05-30T23:14:33.032Z,97589.56
2023-05-30T23:16:59.630Z,97597.75
2023-05-30T23:19:26.276Z,97610.47
2023-05-30T23:21:52.943Z,97613.78
2023-05-30T23:24:19.684Z,97617.22
2023-05-30T23:26:46.312Z,97606.25
2023-05-30T23:29:13.048Z,97612.72
2023-05-30T23:31:39.959Z,97603.25
2023-05-30T23:34:06.531Z,97609.88
2023-05-30T23:36:33.184Z,97609.03
2023-05-30T23:38:59.773Z,97614.09
2023-05-30T23:41:27.061Z,97609.53
2023-05-30T23:43:53.914Z,97608.94
2023-05-30T23:46:20.581Z,97620.56
2023-05-30T23:48:47.238Z,97615.34
2023-05-30T23:51:20.424Z,97610.63
2023-05-30T23:53:47.094Z,97613.19
2023-05-30T23:56:14.014Z,97612.44
2023-05-30T23:58:40.813Z,97613.28
